sensor_id;sensor_type;location;lat;lon;timestamp;temperature;humidity
11152;DHT22;5630;49.342;10.802;2023-07-09T00:01:54;21.90;95.80
11152;DHT22;5630;49.342;10.802;2023-07-09T00:04:20;21.90;95.90
11152;DHT22;5630;49.342;10.802;2023-07-09T00:06:46;21.90;95.90
11152;DHT22;5630;49.342;10.802;2023-07-09T00:09:15;21.80;96.00
11152;DHT22;5630;49.342;10.802;2023-07-09T00:11:44;21.70;96.10
11152;DHT22;5630;49.342;10.802;2023-07-09T00:14:11;21.70;96.40
11152;DHT22;5630;49.342;10.802;2023-07-09T00:16:38;21.70;96.40
11152;DHT22;5630;49.342;10.802;2023-07-09T00:19:09;21.70;96.80
11152;DHT22;5630;49.342;10.802;2023-07-09T00:21:36;21.50;97.10
11152;DHT22;5630;49.342;10.802;2023-07-09T00:24:02;21.40;97.40
11152;DHT22;5630;49.342;10.802;2023-07-09T00:26:31;21.40;97.80
11152;DHT22;5630;49.342;10.802;2023-07-09T00:28:58;21.30;97.90
11152;DHT22;5630;49.342;10.802;2023-07-09T00:31:24;21.30;98.10
11152;DHT22;5630;49.342;10.802;2023-07-09T00:33:50;21.30;98.20
11152;DHT22;5630;49.342;10.802;2023-07-09T00:36:28;21.30;98.10
11152;DHT22;5630;49.342;10.802;2023-07-09T00:38:54;21.20;98.20
11152;DHT22;5630;49.342;10.802;2023-07-09T00:41:23;21.20;98.20
11152;DHT22;5630;49.342;10.802;2023-07-09T00:43:50;21.20;98.20
11152;DHT22;5630;49.342;10.802;2023-07-09T00:49:01;21.20;98.40
11152;DHT22;5630;49.342;10.802;2023-07-09T00:51:30;21.20;98.40
11152;DHT22;5630;49.342;10.802;2023-07-09T00:54:02;21.10;98.60
11152;DHT22;5630;49.342;10.802;2023-07-09T00:56:36;21.10;98.50
11152;DHT22;5630;49.342;10.802;2023-07-09T00:59:07;21.10;98.50
11152;DHT22;5630;49.342;10.802;2023-07-09T01:01:34;21.10;98.70
11152;DHT22;5630;49.342;10.802;2023-07-09T01:04:02;21.10;98.80
11152;DHT22;5630;49.342;10.802;2023-07-09T01:06:36;21.10;98.80
11152;DHT22;5630;49.342;10.802;2023-07-09T01:09:03;21.00;98.80
11152;DHT22;5630;49.342;10.802;2023-07-09T01:11:29;21.00;98.80
11152;DHT22;5630;49.342;10.802;2023-07-09T01:13:57;21.00;99.00
11152;DHT22;5630;49.342;10.802;2023-07-09T01:16:30;21.00;99.10
11152;DHT22;5630;49.342;10.802;2023-07-09T01:18:56;21.00;99.20
11152;DHT22;5630;49.342;10.802;2023-07-09T01:21:22;20.90;99.10
11152;DHT22;5630;49.342;10.802;2023-07-09T01:23:49;20.90;99.30
11152;DHT22;5630;49.342;10.802;2023-07-09T01:26:21;20.90;99.20
11152;DHT22;5630;49.342;10.802;2023-07-09T01:28:50;20.80;99.50
11152;DHT22;5630;49.342;10.802;2023-07-09T01:31:16;20.90;99.70
11152;DHT22;5630;49.342;10.802;2023-07-09T01:33:43;20.90;99.80
11152;DHT22;5630;49.342;10.802;2023-07-09T01:36:11;20.80;99.90
11152;DHT22;5630;49.342;10.802;2023-07-09T01:38:39;20.80;99.80
11152;DHT22;5630;49.342;10.802;2023-07-09T01:41:05;20.80;99.90
11152;DHT22;5630;49.342;10.802;2023-07-09T01:43:32;20.80;99.90
11152;DHT22;5630;49.342;10.802;2023-07-09T01:45:58;20.70;99.90
11152;DHT22;5630;49.342;10.802;2023-07-09T01:48:25;20.70;99.90
11152;DHT22;5630;49.342;10.802;2023-07-09T01:50:52;20.70;99.90
11152;DHT22;5630;49.342;10.802;2023-07-09T01:53:21;20.60;99.90
11152;DHT22;5630;49.342;10.802;2023-07-09T01:55:51;20.60;99.90
11152;DHT22;5630;49.342;10.802;2023-07-09T01:58:17;20.50;99.90
11152;DHT22;5630;49.342;10.802;2023-07-09T02:00:43;20.40;99.90
11152;DHT22;5630;49.342;10.802;2023-07-09T02:03:10;20.40;99.90
11152;DHT22;5630;49.342;10.802;2023-07-09T02:05:36;20.30;99.90
11152;DHT22;5630;49.342;10.802;2023-07-09T02:08:03;20.20;99.90
11152;DHT22;5630;49.342;10.802;2023-07-09T02:10:29;20.20;99.90
11152;DHT22;5630;49.342;10.802;2023-07-09T02:12:54;20.10;99.90
11152;DHT22;5630;49.342;10.802;2023-07-09T02:15:20;20.10;99.90
11152;DHT22;5630;49.342;10.802;2023-07-09T02:17:45;20.00;99.90
11152;DHT22;5630;49.342;10.802;2023-07-09T02:20:11;20.00;99.90
11152;DHT22;5630;49.342;10.802;2023-07-09T02:22:39;19.90;99.90
11152;DHT22;5630;49.342;10.802;2023-07-09T02:25:05;19.80;99.90
11152;DHT22;5630;49.342;10.802;2023-07-09T02:27:32;19.80;99.90
11152;DHT22;5630;49.342;10.802;2023-07-09T02:29:58;19.80;99.90
11152;DHT22;5630;49.342;10.802;2023-07-09T02:32:25;19.70;99.90
11152;DHT22;5630;49.342;10.802;2023-07-09T02:34:52;19.70;99.90
11152;DHT22;5630;49.342;10.802;2023-07-09T02:37:26;19.70;99.90
11152;DHT22;5630;49.342;10.802;2023-07-09T02:39:52;19.60;99.90
11152;DHT22;5630;49.342;10.802;2023-07-09T02:42:19;19.60;99.90
11152;DHT22;5630;49.342;10.802;2023-07-09T02:44:45;19.60;99.90
11152;DHT22;5630;49.342;10.802;2023-07-09T02:47:12;19.60;99.90
11152;DHT22;5630;49.342;10.802;2023-07-09T02:49:37;19.60;99.90
11152;DHT22;5630;49.342;10.802;2023-07-09T02:52:04;19.60;99.90
11152;DHT22;5630;49.342;10.802;2023-07-09T02:54:30;19.60;99.90
11152;DHT22;5630;49.342;10.802;2023-07-09T02:56:56;19.60;99.90
11152;DHT22;5630;49.342;10.802;2023-07-09T02:59:21;19.60;99.90
11152;DHT22;5630;49.342;10.802;2023-07-09T03:01:47;19.60;99.90
11152;DHT22;5630;49.342;10.802;2023-07-09T03:04:14;19.60;99.90
11152;DHT22;5630;49.342;10.802;2023-07-09T03:06:39;19.60;99.90
11152;DHT22;5630;49.342;10.802;2023-07-09T03:09:06;19.60;99.90
11152;DHT22;5630;49.342;10.802;2023-07-09T03:11:33;19.70;99.90
11152;DHT22;5630;49.342;10.802;2023-07-09T03:14:00;19.60;99.90
11152;DHT22;5630;49.342;10.802;2023-07-09T03:16:30;19.60;99.90
11152;DHT22;5630;49.342;10.802;2023-07-09T03:18:56;19.60;99.90
11152;DHT22;5630;49.342;10.802;2023-07-09T03:21:23;19.60;99.90
11152;DHT22;5630;49.342;10.802;2023-07-09T03:23:49;19.60;99.90
11152;DHT22;5630;49.342;10.802;2023-07-09T03:26:15;19.60;99.90
11152;DHT22;5630;49.342;10.802;2023-07-09T03:28:42;19.70;99.90
11152;DHT22;5630;49.342;10.802;2023-07-09T03:31:07;19.70;99.90
11152;DHT22;5630;49.342;10.802;2023-07-09T03:33:33;19.70;99.90
11152;DHT22;5630;49.342;10.802;2023-07-09T03:35:58;19.60;99.90
11152;DHT22;5630;49.342;10.802;2023-07-09T03:38:24;19.70;99.90
11152;DHT22;5630;49.342;10.802;2023-07-09T03:40:51;19.70;99.90
11152;DHT22;5630;49.342;10.802;2023-07-09T03:43:17;19.60;99.90
11152;DHT22;5630;49.342;10.802;2023-07-09T03:45:44;19.60;99.90
11152;DHT22;5630;49.342;10.802;2023-07-09T03:48:10;19.60;99.90
11152;DHT22;5630;49.342;10.802;2023-07-09T03:50:35;19.60;99.90
11152;DHT22;5630;49.342;10.802;2023-07-09T03:53:01;19.60;99.90
11152;DHT22;5630;49.342;10.802;2023-07-09T03:55:27;19.60;99.90
11152;DHT22;5630;49.342;10.802;2023-07-09T03:57:56;19.50;99.90
11152;DHT22;5630;49.342;10.802;2023-07-09T04:00:22;19.50;99.90
11152;DHT22;5630;49.342;10.802;2023-07-09T04:02:48;19.40;99.90
11152;DHT22;5630;49.342;10.802;2023-07-09T04:05:14;19.40;99.90
11152;DHT22;5630;49.342;10.802;2023-07-09T04:07:40;19.40;99.90
11152;DHT22;5630;49.342;10.802;2023-07-09T04:10:06;19.30;99.90
11152;DHT22;5630;49.342;10.802;2023-07-09T04:12:32;19.30;99.90
11152;DHT22;5630;49.342;10.802;2023-07-09T04:14:57;19.30;99.90
11152;DHT22;5630;49.342;10.802;2023-07-09T04:17:23;19.30;99.90
11152;DHT22;5630;49.342;10.802;2023-07-09T04:19:50;19.30;99.90
11152;DHT22;5630;49.342;10.802;2023-07-09T04:22:16;19.30;99.90
11152;DHT22;5630;49.342;10.802;2023-07-09T04:24:43;19.30;99.90
11152;DHT22;5630;49.342;10.802;2023-07-09T04:27:09;19.30;99.90
11152;DHT22;5630;49.342;10.802;2023-07-09T04:29:35;19.40;99.90
11152;DHT22;5630;49.342;10.802;2023-07-09T04:32:12;19.40;99.90
11152;DHT22;5630;49.342;10.802;2023-07-09T04:34:38;19.40;99.90
11152;DHT22;5630;49.342;10.802;2023-07-09T04:37:08;19.40;99.90
11152;DHT22;5630;49.342;10.802;2023-07-09T04:39:34;19.40;99.90
11152;DHT22;5630;49.342;10.802;2023-07-09T04:42:00;19.50;99.90
11152;DHT22;5630;49.342;10.802;2023-07-09T04:44:25;19.50;99.90
11152;DHT22;5630;49.342;10.802;2023-07-09T04:46:51;19.50;99.90
11152;DHT22;5630;49.342;10.802;2023-07-09T04:49:17;19.50;99.90
11152;DHT22;5630;49.342;10.802;2023-07-09T04:51:42;19.60;99.90
11152;DHT22;5630;49.342;10.802;2023-07-09T04:54:08;19.60;99.90
11152;DHT22;5630;49.342;10.802;2023-07-09T04:56:33;19.60;99.90
11152;DHT22;5630;49.342;10.802;2023-07-09T04:58:59;19.60;99.90
11152;DHT22;5630;49.342;10.802;2023-07-09T05:01:25;19.60;99.90
11152;DHT22;5630;49.342;10.802;2023-07-09T05:03:50;19.60;99.90
11152;DHT22;5630;49.342;10.802;2023-07-09T05:06:16;19.60;99.90
11152;DHT22;5630;49.342;10.802;2023-07-09T05:08:42;19.70;99.90
11152;DHT22;5630;49.342;10.802;2023-07-09T05:11:08;19.70;99.90
11152;DHT22;5630;49.342;10.802;2023-07-09T05:13:34;19.70;99.90
11152;DHT22;5630;49.342;10.802;2023-07-09T05:15:59;19.80;99.90
11152;DHT22;5630;49.342;10.802;2023-07-09T05:18:25;19.80;99.90
11152;DHT22;5630;49.342;10.802;2023-07-09T05:20:51;20.00;99.90
11152;DHT22;5630;49.342;10.802;2023-07-09T05:23:16;20.20;99.90
11152;DHT22;5630;49.342;10.802;2023-07-09T05:25:42;20.30;99.90
11152;DHT22;5630;49.342;10.802;2023-07-09T05:28:08;20.40;99.90
11152;DHT22;5630;49.342;10.802;2023-07-09T05:30:34;20.50;99.90
11152;DHT22;5630;49.342;10.802;2023-07-09T05:32:59;20.60;99.90
11152;DHT22;5630;49.342;10.802;2023-07-09T05:35:26;20.60;99.90
11152;DHT22;5630;49.342;10.802;2023-07-09T05:37:55;20.70;99.90
11152;DHT22;5630;49.342;10.802;2023-07-09T05:40:21;20.70;99.90
11152;DHT22;5630;49.342;10.802;2023-07-09T05:42:47;20.80;99.90
11152;DHT22;5630;49.342;10.802;2023-07-09T05:45:14;20.90;99.90
11152;DHT22;5630;49.342;10.802;2023-07-09T05:47:39;21.00;99.90
11152;DHT22;5630;49.342;10.802;2023-07-09T05:50:05;21.00;99.90
11152;DHT22;5630;49.342;10.802;2023-07-09T05:52:31;21.10;99.90
11152;DHT22;5630;49.342;10.802;2023-07-09T05:54:57;21.20;99.90
11152;DHT22;5630;49.342;10.802;2023-07-09T05:57:22;21.20;99.90
11152;DHT22;5630;49.342;10.802;2023-07-09T05:59:48;21.40;99.90
11152;DHT22;5630;49.342;10.802;2023-07-09T06:02:15;21.40;99.90
11152;DHT22;5630;49.342;10.802;2023-07-09T06:04:41;21.50;99.90
11152;DHT22;5630;49.342;10.802;2023-07-09T06:07:07;21.60;99.90
11152;DHT22;5630;49.342;10.802;2023-07-09T06:09:34;21.60;99.90
11152;DHT22;5630;49.342;10.802;2023-07-09T06:11:59;21.80;99.90
11152;DHT22;5630;49.342;10.802;2023-07-09T06:14:26;21.80;99.90
11152;DHT22;5630;49.342;10.802;2023-07-09T06:16:52;21.90;99.90
11152;DHT22;5630;49.342;10.802;2023-07-09T06:19:17;22.10;99.90
11152;DHT22;5630;49.342;10.802;2023-07-09T06:21:43;22.20;99.90
11152;DHT22;5630;49.342;10.802;2023-07-09T06:24:09;22.30;99.90
11152;DHT22;5630;49.342;10.802;2023-07-09T06:26:35;22.40;99.90
11152;DHT22;5630;49.342;10.802;2023-07-09T06:29:01;22.50;99.90
11152;DHT22;5630;49.342;10.802;2023-07-09T06:31:26;22.70;99.90
11152;DHT22;5630;49.342;10.802;2023-07-09T06:33:52;22.80;99.90
11152;DHT22;5630;49.342;10.802;2023-07-09T06:36:19;22.90;99.90
11152;DHT22;5630;49.342;10.802;2023-07-09T06:38:45;23.10;99.90
11152;DHT22;5630;49.342;10.802;2023-07-09T06:41:12;23.20;99.90
11152;DHT22;5630;49.342;10.802;2023-07-09T06:43:37;23.40;99.90
11152;DHT22;5630;49.342;10.802;2023-07-09T06:46:05;23.50;99.90
11152;DHT22;5630;49.342;10.802;2023-07-09T06:48:32;23.70;99.90
11152;DHT22;5630;49.342;10.802;2023-07-09T06:50:59;23.80;99.90
11152;DHT22;5630;49.342;10.802;2023-07-09T06:53:26;24.00;99.90
11152;DHT22;5630;49.342;10.802;2023-07-09T06:55:52;24.20;99.90
11152;DHT22;5630;49.342;10.802;2023-07-09T06:58:22;24.30;99.90
11152;DHT22;5630;49.342;10.802;2023-07-09T07:00:49;24.50;99.90
11152;DHT22;5630;49.342;10.802;2023-07-09T07:03:15;24.70;99.90
11152;DHT22;5630;49.342;10.802;2023-07-09T07:05:45;24.90;99.90
11152;DHT22;5630;49.342;10.802;2023-07-09T07:08:13;25.20;99.90
11152;DHT22;5630;49.342;10.802;2023-07-09T07:10:40;25.30;99.90
11152;DHT22;5630;49.342;10.802;2023-07-09T07:13:06;25.50;99.90
11152;DHT22;5630;49.342;10.802;2023-07-09T07:15:31;25.70;99.90
11152;DHT22;5630;49.342;10.802;2023-07-09T07:17:57;25.80;99.90
11152;DHT22;5630;49.342;10.802;2023-07-09T07:20:24;25.90;99.90
11152;DHT22;5630;49.342;10.802;2023-07-09T07:22:49;26.20;99.90
11152;DHT22;5630;49.342;10.802;2023-07-09T07:25:15;26.50;99.90
11152;DHT22;5630;49.342;10.802;2023-07-09T07:27:41;26.70;99.90
11152;DHT22;5630;49.342;10.802;2023-07-09T07:30:07;26.90;99.90
11152;DHT22;5630;49.342;10.802;2023-07-09T07:32:38;27.00;99.90
11152;DHT22;5630;49.342;10.802;2023-07-09T07:35:07;27.40;99.90
11152;DHT22;5630;49.342;10.802;2023-07-09T07:37:33;27.50;99.90
11152;DHT22;5630;49.342;10.802;2023-07-09T07:39:58;27.60;99.90
11152;DHT22;5630;49.342;10.802;2023-07-09T07:42:24;27.70;99.90
11152;DHT22;5630;49.342;10.802;2023-07-09T07:44:50;27.90;99.90
11152;DHT22;5630;49.342;10.802;2023-07-09T07:47:16;28.10;99.90
11152;DHT22;5630;49.342;10.802;2023-07-09T07:49:41;28.30;99.90
11152;DHT22;5630;49.342;10.802;2023-07-09T07:52:07;28.50;99.90
11152;DHT22;5630;49.342;10.802;2023-07-09T07:54:33;28.70;99.00
11152;DHT22;5630;49.342;10.802;2023-07-09T07:56:58;29.00;99.90
11152;DHT22;5630;49.342;10.802;2023-07-09T07:59:24;29.10;98.00
11152;DHT22;5630;49.342;10.802;2023-07-09T08:01:50;29.20;99.60
11152;DHT22;5630;49.342;10.802;2023-07-09T08:04:16;29.40;98.80
11152;DHT22;5630;49.342;10.802;2023-07-09T08:06:41;29.30;98.00
11152;DHT22;5630;49.342;10.802;2023-07-09T08:09:07;29.40;97.00
11152;DHT22;5630;49.342;10.802;2023-07-09T08:11:33;29.70;98.10
11152;DHT22;5630;49.342;10.802;2023-07-09T08:13:59;30.00;97.40
11152;DHT22;5630;49.342;10.802;2023-07-09T08:16:25;30.00;95.90
11152;DHT22;5630;49.342;10.802;2023-07-09T08:18:50;30.10;94.70
11152;DHT22;5630;49.342;10.802;2023-07-09T08:21:17;30.30;94.70
11152;DHT22;5630;49.342;10.802;2023-07-09T08:23:44;30.50;95.30
11152;DHT22;5630;49.342;10.802;2023-07-09T08:26:10;30.70;93.10
11152;DHT22;5630;49.342;10.802;2023-07-09T08:28:35;30.80;92.70
11152;DHT22;5630;49.342;10.802;2023-07-09T08:31:01;30.90;93.60
11152;DHT22;5630;49.342;10.802;2023-07-09T08:33:27;31.00;93.60
11152;DHT22;5630;49.342;10.802;2023-07-09T08:35:53;31.30;94.50
11152;DHT22;5630;49.342;10.802;2023-07-09T08:38:20;31.30;91.60
11152;DHT22;5630;49.342;10.802;2023-07-09T08:41:01;31.40;92.60
11152;DHT22;5630;49.342;10.802;2023-07-09T08:43:34;31.40;91.20
11152;DHT22;5630;49.342;10.802;2023-07-09T08:46:26;31.50;91.40
11152;DHT22;5630;49.342;10.802;2023-07-09T08:48:56;31.60;91.40
11152;DHT22;5630;49.342;10.802;2023-07-09T08:51:34;31.80;93.90
11152;DHT22;5630;49.342;10.802;2023-07-09T08:54:02;32.00;92.70
11152;DHT22;5630;49.342;10.802;2023-07-09T08:56:32;32.20;90.50
11152;DHT22;5630;49.342;10.802;2023-07-09T08:59:01;32.20;87.70
11152;DHT22;5630;49.342;10.802;2023-07-09T09:01:38;32.30;90.60
11152;DHT22;5630;49.342;10.802;2023-07-09T09:04:15;32.40;90.70
11152;DHT22;5630;49.342;10.802;2023-07-09T09:06:56;32.70;88.20
11152;DHT22;5630;49.342;10.802;2023-07-09T09:09:28;32.90;91.00
11152;DHT22;5630;49.342;10.802;2023-07-09T09:12:08;33.00;88.80
11152;DHT22;5630;49.342;10.802;2023-07-09T09:14:39;33.20;88.50
11152;DHT22;5630;49.342;10.802;2023-07-09T09:17:14;33.40;90.60
11152;DHT22;5630;49.342;10.802;2023-07-09T09:19:49;33.60;84.60
11152;DHT22;5630;49.342;10.802;2023-07-09T09:22:21;33.60;87.90
11152;DHT22;5630;49.342;10.802;2023-07-09T09:27:24;33.90;87.00
11152;DHT22;5630;49.342;10.802;2023-07-09T09:29:49;33.90;85.20
11152;DHT22;5630;49.342;10.802;2023-07-09T09:32:24;34.10;85.40
11152;DHT22;5630;49.342;10.802;2023-07-09T09:34:50;34.30;85.30
11152;DHT22;5630;49.342;10.802;2023-07-09T09:39:49;34.40;86.90
11152;DHT22;5630;49.342;10.802;2023-07-09T09:42:15;34.50;84.60
11152;DHT22;5630;49.342;10.802;2023-07-09T09:44:44;34.40;80.50
11152;DHT22;5630;49.342;10.802;2023-07-09T09:47:13;34.50;84.40
11152;DHT22;5630;49.342;10.802;2023-07-09T09:49:43;34.60;84.00
11152;DHT22;5630;49.342;10.802;2023-07-09T09:52:17;34.80;83.00
11152;DHT22;5630;49.342;10.802;2023-07-09T09:54:52;34.70;81.60
11152;DHT22;5630;49.342;10.802;2023-07-09T09:57:24;34.00;82.00
11152;DHT22;5630;49.342;10.802;2023-07-09T09:59:50;33.50;79.40
11152;DHT22;5630;49.342;10.802;2023-07-09T10:02:18;33.20;81.60
11152;DHT22;5630;49.342;10.802;2023-07-09T10:04:44;32.90;78.90
11152;DHT22;5630;49.342;10.802;2023-07-09T10:07:23;32.40;83.80
11152;DHT22;5630;49.342;10.802;2023-07-09T10:09:54;32.50;86.40
11152;DHT22;5630;49.342;10.802;2023-07-09T10:15:25;32.00;83.90
11152;DHT22;5630;49.342;10.802;2023-07-09T10:20:28;32.60;82.70
11152;DHT22;5630;49.342;10.802;2023-07-09T10:23:13;32.80;79.70
11152;DHT22;5630;49.342;10.802;2023-07-09T10:25:48;32.40;79.40
11152;DHT22;5630;49.342;10.802;2023-07-09T10:30:59;31.80;78.30
11152;DHT22;5630;49.342;10.802;2023-07-09T10:33:40;32.00;83.10
11152;DHT22;5630;49.342;10.802;2023-07-09T10:39:05;32.60;84.40
11152;DHT22;5630;49.342;10.802;2023-07-09T10:41:34;32.80;77.60
11152;DHT22;5630;49.342;10.802;2023-07-09T10:44:16;32.80;78.00
11152;DHT22;5630;49.342;10.802;2023-07-09T10:46:49;32.60;75.80
11152;DHT22;5630;49.342;10.802;2023-07-09T10:49:17;32.90;76.50
11152;DHT22;5630;49.342;10.802;2023-07-09T10:52:07;32.90;79.20
11152;DHT22;5630;49.342;10.802;2023-07-09T10:54:46;32.60;81.40
11152;DHT22;5630;49.342;10.802;2023-07-09T10:57:31;33.00;80.20
11152;DHT22;5630;49.342;10.802;2023-07-09T11:00:01;33.40;81.10
11152;DHT22;5630;49.342;10.802;2023-07-09T11:02:35;33.80;80.50
11152;DHT22;5630;49.342;10.802;2023-07-09T11:05:06;34.10;79.40
11152;DHT22;5630;49.342;10.802;2023-07-09T11:08:04;34.30;77.90
11152;DHT22;5630;49.342;10.802;2023-07-09T11:10:41;34.10;76.20
11152;DHT22;5630;49.342;10.802;2023-07-09T11:13:13;34.40;77.10
11152;DHT22;5630;49.342;10.802;2023-07-09T11:15:43;34.50;77.30
11152;DHT22;5630;49.342;10.802;2023-07-09T11:18:19;34.70;78.60
11152;DHT22;5630;49.342;10.802;2023-07-09T11:20:46;35.00;74.20
11152;DHT22;5630;49.342;10.802;2023-07-09T11:23:21;35.30;75.50
11152;DHT22;5630;49.342;10.802;2023-07-09T11:26:14;35.00;73.50
11152;DHT22;5630;49.342;10.802;2023-07-09T11:28:45;34.70;72.70
11152;DHT22;5630;49.342;10.802;2023-07-09T11:31:22;34.80;72.90
11152;DHT22;5630;49.342;10.802;2023-07-09T11:33:56;34.50;72.80
11152;DHT22;5630;49.342;10.802;2023-07-09T11:36:27;34.50;76.20
11152;DHT22;5630;49.342;10.802;2023-07-09T11:38:53;34.10;76.90
11152;DHT22;5630;49.342;10.802;2023-07-09T11:41:26;33.90;74.70
11152;DHT22;5630;49.342;10.802;2023-07-09T11:46:29;33.20;78.30
11152;DHT22;5630;49.342;10.802;2023-07-09T11:48:58;33.00;80.60
11152;DHT22;5630;49.342;10.802;2023-07-09T11:51:46;32.90;81.00
11152;DHT22;5630;49.342;10.802;2023-07-09T11:54:15;33.20;77.30
11152;DHT22;5630;49.342;10.802;2023-07-09T11:56:40;33.80;78.20
11152;DHT22;5630;49.342;10.802;2023-07-09T11:59:10;34.10;75.90
11152;DHT22;5630;49.342;10.802;2023-07-09T12:01:46;34.20;78.20
11152;DHT22;5630;49.342;10.802;2023-07-09T12:04:16;34.50;75.00
11152;DHT22;5630;49.342;10.802;2023-07-09T12:06:42;34.60;72.90
11152;DHT22;5630;49.342;10.802;2023-07-09T12:09:15;34.90;72.10
11152;DHT22;5630;49.342;10.802;2023-07-09T12:11:45;35.00;73.50
11152;DHT22;5630;49.342;10.802;2023-07-09T12:14:16;35.20;72.60
11152;DHT22;5630;49.342;10.802;2023-07-09T12:16:47;35.60;74.40
11152;DHT22;5630;49.342;10.802;2023-07-09T12:19:15;35.90;70.10
11152;DHT22;5630;49.342;10.802;2023-07-09T12:21:46;36.10;70.20
11152;DHT22;5630;49.342;10.802;2023-07-09T12:24:36;36.30;70.40
11152;DHT22;5630;49.342;10.802;2023-07-09T12:27:14;36.70;70.80
11152;DHT22;5630;49.342;10.802;2023-07-09T12:29:42;36.60;67.40
11152;DHT22;5630;49.342;10.802;2023-07-09T12:32:13;36.50;66.20
11152;DHT22;5630;49.342;10.802;2023-07-09T12:34:39;36.80;69.20
11152;DHT22;5630;49.342;10.802;2023-07-09T12:37:05;36.90;67.40
11152;DHT22;5630;49.342;10.802;2023-07-09T12:39:33;36.80;69.70
11152;DHT22;5630;49.342;10.802;2023-07-09T12:42:00;36.80;65.50
11152;DHT22;5630;49.342;10.802;2023-07-09T12:44:29;36.70;66.30
11152;DHT22;5630;49.342;10.802;2023-07-09T12:46:56;36.70;68.00
11152;DHT22;5630;49.342;10.802;2023-07-09T12:49:29;36.70;64.80
11152;DHT22;5630;49.342;10.802;2023-07-09T12:51:56;36.90;65.60
11152;DHT22;5630;49.342;10.802;2023-07-09T12:54:22;37.00;65.60
11152;DHT22;5630;49.342;10.802;2023-07-09T12:56:51;37.20;65.80
11152;DHT22;5630;49.342;10.802;2023-07-09T12:59:20;37.40;67.50
11152;DHT22;5630;49.342;10.802;2023-07-09T13:01:49;36.70;64.10
11152;DHT22;5630;49.342;10.802;2023-07-09T13:04:15;36.80;65.60
11152;DHT22;5630;49.342;10.802;2023-07-09T13:06:42;37.00;65.20
11152;DHT22;5630;49.342;10.802;2023-07-09T13:09:19;37.20;67.60
11152;DHT22;5630;49.342;10.802;2023-07-09T13:11:46;37.10;63.90
11152;DHT22;5630;49.342;10.802;2023-07-09T13:14:21;36.70;62.70
11152;DHT22;5630;49.342;10.802;2023-07-09T13:16:48;36.80;65.70
11152;DHT22;5630;49.342;10.802;2023-07-09T13:19:13;36.90;65.50
11152;DHT22;5630;49.342;10.802;2023-07-09T13:21:40;37.00;65.00
11152;DHT22;5630;49.342;10.802;2023-07-09T13:24:27;36.90;65.00
11152;DHT22;5630;49.342;10.802;2023-07-09T13:26:53;37.00;63.50
11152;DHT22;5630;49.342;10.802;2023-07-09T13:29:20;36.80;64.30
11152;DHT22;5630;49.342;10.802;2023-07-09T13:31:47;37.00;63.10
11152;DHT22;5630;49.342;10.802;2023-07-09T13:36:44;36.10;63.20
11152;DHT22;5630;49.342;10.802;2023-07-09T13:39:10;35.70;65.40
11152;DHT22;5630;49.342;10.802;2023-07-09T13:41:37;35.80;65.20
11152;DHT22;5630;49.342;10.802;2023-07-09T13:44:11;36.10;65.00
11152;DHT22;5630;49.342;10.802;2023-07-09T13:46:38;36.30;64.40
11152;DHT22;5630;49.342;10.802;2023-07-09T13:49:14;36.50;64.30
11152;DHT22;5630;49.342;10.802;2023-07-09T13:51:45;36.50;64.70
11152;DHT22;5630;49.342;10.802;2023-07-09T13:54:25;36.50;64.00
11152;DHT22;5630;49.342;10.802;2023-07-09T13:56:51;36.40;63.50
11152;DHT22;5630;49.342;10.802;2023-07-09T13:59:18;36.10;64.00
11152;DHT22;5630;49.342;10.802;2023-07-09T14:01:45;36.10;62.90
11152;DHT22;5630;49.342;10.802;2023-07-09T14:04:13;36.00;63.00
11152;DHT22;5630;49.342;10.802;2023-07-09T14:06:39;36.10;63.80
11152;DHT22;5630;49.342;10.802;2023-07-09T14:09:05;36.30;66.70
11152;DHT22;5630;49.342;10.802;2023-07-09T14:11:31;36.10;64.10
11152;DHT22;5630;49.342;10.802;2023-07-09T14:13:57;36.20;63.10
11152;DHT22;5630;49.342;10.802;2023-07-09T14:16:23;36.10;64.10
11152;DHT22;5630;49.342;10.802;2023-07-09T14:18:48;36.10;62.30
11152;DHT22;5630;49.342;10.802;2023-07-09T14:21:25;36.00;63.20
11152;DHT22;5630;49.342;10.802;2023-07-09T14:23:53;35.70;61.70
11152;DHT22;5630;49.342;10.802;2023-07-09T14:26:18;35.80;63.80
11152;DHT22;5630;49.342;10.802;2023-07-09T14:28:44;36.10;64.50
11152;DHT22;5630;49.342;10.802;2023-07-09T14:31:28;35.90;62.00
11152;DHT22;5630;49.342;10.802;2023-07-09T14:33:56;35.80;61.70
11152;DHT22;5630;49.342;10.802;2023-07-09T14:36:23;35.70;62.30
11152;DHT22;5630;49.342;10.802;2023-07-09T14:38:48;35.60;61.10
11152;DHT22;5630;49.342;10.802;2023-07-09T14:41:26;35.50;61.90
11152;DHT22;5630;49.342;10.802;2023-07-09T14:43:54;35.60;65.50
11152;DHT22;5630;49.342;10.802;2023-07-09T14:46:21;35.50;64.90
11152;DHT22;5630;49.342;10.802;2023-07-09T14:48:47;35.80;63.80
11152;DHT22;5630;49.342;10.802;2023-07-09T14:51:14;35.90;65.60
11152;DHT22;5630;49.342;10.802;2023-07-09T14:53:41;36.10;65.90
11152;DHT22;5630;49.342;10.802;2023-07-09T14:56:07;36.10;62.90
11152;DHT22;5630;49.342;10.802;2023-07-09T14:58:34;36.20;64.80
11152;DHT22;5630;49.342;10.802;2023-07-09T15:01:00;36.20;65.60
11152;DHT22;5630;49.342;10.802;2023-07-09T15:03:26;36.10;62.10
11152;DHT22;5630;49.342;10.802;2023-07-09T15:05:52;36.10;61.20
11152;DHT22;5630;49.342;10.802;2023-07-09T15:08:21;36.10;63.30
11152;DHT22;5630;49.342;10.802;2023-07-09T15:10:50;36.00;64.80
11152;DHT22;5630;49.342;10.802;2023-07-09T15:15:52;35.70;62.10
11152;DHT22;5630;49.342;10.802;2023-07-09T15:18:17;35.60;61.90
11152;DHT22;5630;49.342;10.802;2023-07-09T15:20:49;35.30;65.70
11152;DHT22;5630;49.342;10.802;2023-07-09T15:23:15;35.40;63.00
11152;DHT22;5630;49.342;10.802;2023-07-09T15:25:41;35.30;63.60
11152;DHT22;5630;49.342;10.802;2023-07-09T15:28:10;35.30;65.50
11152;DHT22;5630;49.342;10.802;2023-07-09T15:30:35;35.30;66.20
11152;DHT22;5630;49.342;10.802;2023-07-09T15:33:02;35.40;64.90
11152;DHT22;5630;49.342;10.802;2023-07-09T15:35:32;35.30;64.80
11152;DHT22;5630;49.342;10.802;2023-07-09T15:37:58;35.20;63.00
11152;DHT22;5630;49.342;10.802;2023-07-09T15:40:27;35.20;65.50
11152;DHT22;5630;49.342;10.802;2023-07-09T15:42:57;35.20;63.40
11152;DHT22;5630;49.342;10.802;2023-07-09T15:45:23;35.10;64.70
11152;DHT22;5630;49.342;10.802;2023-07-09T15:47:50;35.00;63.00
11152;DHT22;5630;49.342;10.802;2023-07-09T15:50:22;34.80;63.80
11152;DHT22;5630;49.342;10.802;2023-07-09T15:52:51;34.80;65.50
11152;DHT22;5630;49.342;10.802;2023-07-09T15:55:22;34.70;64.00
11152;DHT22;5630;49.342;10.802;2023-07-09T15:57:51;34.60;66.50
11152;DHT22;5630;49.342;10.802;2023-07-09T16:00:23;34.60;66.10
11152;DHT22;5630;49.342;10.802;2023-07-09T16:02:50;34.50;65.70
11152;DHT22;5630;49.342;10.802;2023-07-09T16:05:23;34.30;65.20